Time;durP1;ratioP1;P1;durP2;ratioP2;P2;SDS_P1;SDS_P2;PMS_P1;PMS_P2;Temp;Humidity;BMP_temperature;BMP_pressure;BME280_temperature;BME280_humidity;BME280_pressure;Samples;Min_cycle;Max_cycle;Signal;HPM_P1;HPM_P2
2022/09/20 00:03:54;;;;;;;28.38;16.67;;;;;;;9.25;100.00;98769.03;3993382;87;21154;-82
2022/09/20 00:10:14;;;;;;;23.75;16.40;;;;;;;9.27;100.00;98775.69;3993990;86;21185;-83
2022/09/20 00:23:13;;;;;;;19.60;13.40;;;;;;;9.29;100.00;98782.94;3973724;88;22131;-83
2022/09/20 00:29:31;;;;;;;22.62;15.15;;;;;;;9.32;100.00;98780.03;3974799;88;21134;-83
2022/09/20 00:35:58;;;;;;;24.70;16.05;;;;;;;9.34;100.00;98781.83;3956170;88;21199;-82
2022/09/20 00:42:26;;;;;;;26.20;17.30;;;;;;;9.34;100.00;98783.98;3974238;88;21096;-84
2022/09/20 00:49:28;;;;;;;23.77;16.40;;;;;;;9.38;100.00;98780.70;3980215;87;20994;-85
2022/09/20 00:56:02;;;;;;;25.60;17.65;;;;;;;9.43;100.00;98780.95;3975324;88;21557;-83
2022/09/20 01:02:24;;;;;;;24.98;18.20;;;;;;;9.44;100.00;98780.58;3957086;88;21073;-83
2022/09/20 01:09:00;;;;;;;26.60;18.00;;;;;;;9.46;100.00;98785.10;3972033;87;21809;-84
2022/09/20 01:15:32;;;;;;;25.50;17.12;;;;;;;9.48;100.00;98779.27;3943694;86;21159;-83
2022/09/20 01:28:31;;;;;;;25.88;18.98;;;;;;;9.53;100.00;98783.84;3950721;88;21070;-83
2022/09/20 01:42:06;;;;;;;29.37;18.98;;;;;;;9.57;100.00;98775.66;3879022;90;21157;-83
2022/09/20 01:49:19;;;;;;;28.50;19.02;;;;;;;9.57;100.00;98775.66;3640346;96;22081;-83
2022/09/20 02:03:43;;;;;;;25.32;19.05;;;;;;;9.62;100.00;98781.36;3754217;93;21117;-83
2022/09/20 02:10:31;;;;;;;27.05;19.45;;;;;;;9.61;100.00;98787.43;3755902;93;21173;-83
2022/09/20 02:24:25;;;;;;;27.55;19.25;;;;;;;9.60;100.00;98789.17;3997642;86;20991;-83
2022/09/20 02:31:15;;;;;;;26.37;18.82;;;;;;;9.58;100.00;98798.51;3998585;87;21086;-83
2022/09/20 02:38:01;;;;;;;31.15;19.37;;;;;;;9.60;100.00;98804.97;3927693;88;21075;-83
2022/09/20 02:51:30;;;;;;;30.40;19.27;;;;;;;9.58;100.00;98808.67;3984043;88;21044;-83
2022/09/20 02:58:50;;;;;;;32.15;20.60;;;;;;;9.57;100.00;98810.41;3996171;88;21018;-82
2022/09/20 03:05:51;;;;;;;25.43;18.48;;;;;;;9.59;100.00;98819.80;3980717;86;21130;-83
2022/09/20 03:19:50;;;;;;;31.65;20.00;;;;;;;9.63;100.00;98826.69;3974141;86;21521;-83
2022/09/20 03:26:35;;;;;;;29.55;20.17;;;;;;;9.64;100.00;98820.05;3976390;88;21025;-83
2022/09/20 03:40:01;;;;;;;27.45;20.57;;;;;;;9.62;100.00;98831.35;3968520;88;20129;-84
2022/09/20 03:53:25;;;;;;;26.05;19.07;;;;;;;9.63;100.00;98833.52;3973010;87;20153;-82
2022/09/20 03:59:58;;;;;;;28.15;20.88;;;;;;;9.63;100.00;98838.41;3968032;88;21117;-83
2022/09/20 04:06:49;;;;;;;29.30;19.85;;;;;;;9.64;100.00;98837.24;3979952;88;21127;-83
2022/09/20 04:13:36;;;;;;;28.70;20.97;;;;;;;9.65;100.00;98848.97;3975198;88;21080;-82
2022/09/20 04:20:10;;;;;;;27.02;20.17;;;;;;;9.63;100.00;98853.45;3964507;88;21055;-83
2022/09/20 04:26:32;;;;;;;29.07;21.48;;;;;;;9.65;100.00;98858.53;3993525;88;21785;-83
2022/09/20 04:33:33;;;;;;;26.95;20.85;;;;;;;9.65;100.00;98859.91;3970324;88;26115;-81
2022/09/20 04:40:29;;;;;;;24.27;18.87;;;;;;;9.64;100.00;98871.97;3995239;88;21118;-82
2022/09/20 04:47:24;;;;;;;25.05;18.32;;;;;;;9.63;100.00;98873.14;3927692;88;21078;-82
2022/09/20 04:54:33;;;;;;;28.87;19.98;;;;;;;9.63;100.00;98871.78;3996087;88;21028;-82
2022/09/20 05:01:19;;;;;;;26.82;19.67;;;;;;;9.65;100.00;98868.10;3935966;88;21079;-83
2022/09/20 05:08:36;;;;;;;26.77;19.15;;;;;;;9.68;100.00;98875.56;3994961;87;21844;-83
2022/09/20 05:43:46;;;;;;;24.00;19.02;;;;;;;9.70;100.00;98897.81;4068132;85;21105;-82
2022/09/20 05:58:21;;;;;;;34.35;21.30;;;;;;;9.72;100.00;98909.98;3927876;89;21051;-83
2022/09/20 06:04:52;;;;;;;30.85;20.75;;;;;;;9.76;100.00;98912.73;3912911;89;21164;-82
2022/09/20 06:11:52;;;;;;;32.00;22.58;;;;;;;9.83;100.00;98919.09;3901893;88;21082;-83
2022/09/20 06:18:31;;;;;;;30.05;20.77;;;;;;;9.84;100.00;98920.66;3812412;92;21144;-82
2022/09/20 06:25:15;;;;;;;27.87;19.95;;;;;;;9.90;100.00;98927.37;3844999;91;21084;-83
2022/09/20 06:53:15;;;;;;;19.70;12.45;;;;;;;9.83;100.00;98934.70;3903617;89;21710;-81
2022/09/20 06:59:45;;;;;;;25.15;12.90;;;;;;;9.87;100.00;98939.06;3850770;91;21075;-81
2022/09/20 07:13:38;;;;;;;22.42;14.28;;;;;;;10.07;100.00;98956.13;3878480;89;21049;-82
2022/09/20 07:33:33;;;;;;;18.37;13.15;;;;;;;10.19;100.00;98984.63;3774365;92;21060;-82
2022/09/20 07:53:48;;;;;;;17.62;11.80;;;;;;;10.19;100.00;99005.94;3910214;89;21136;-82
2022/09/20 08:28:00;;;;;;;14.15;10.75;;;;;;;10.67;100.00;99019.19;3980848;87;21597;-82
2022/09/20 08:48:37;;;;;;;11.28;7.87;;;;;;;10.95;100.00;99035.92;3978740;88;21190;-83
2022/09/20 09:30:49;;;;;;;8.93;6.55;;;;;;;11.72;100.00;99028.41;3756721;93;21256;-83
2022/09/20 11:08:38;;;;;;;7.40;5.40;;;;;;;17.39;98.16;99005.50;3924470;88;21108;-84
2022/09/20 11:29:31;;;;;;;6.25;4.25;;;;;;;15.68;93.68;99013.38;3990567;88;21111;-84
2022/09/20 12:52:54;;;;;;;3.55;1.55;;;;;;;14.11;89.64;99000.84;3889155;89;21134;-83
2022/09/20 13:07:36;;;;;;;2.98;1.45;;;;;;;13.88;88.79;98996.98;3776769;93;21101;-83
2022/09/20 13:50:24;;;;;;;2.67;1.70;;;;;;;13.26;87.81;99040.64;3974708;87;21075;-83
2022/09/20 14:04:39;;;;;;;4.28;1.72;;;;;;;12.96;89.03;99038.78;3973319;88;21603;-83
2022/09/20 14:33:01;;;;;;;5.92;1.92;;;;;;;12.64;89.13;99033.20;3900634;90;21100;-82
2022/09/20 15:21:21;;;;;;;4.83;1.90;;;;;;;11.82;91.69;99074.91;3962350;88;21056;-82
2022/09/20 16:09:56;;;;;;;5.87;2.90;;;;;;;11.34;92.74;99088.38;3694816;93;21123;-82
2022/09/20 16:16:02;;;;;;;7.75;3.80;;;;;;;11.28;93.23;99094.77;3871193;88;21123;-82
2022/09/20 16:22:04;;;;;;;6.95;3.67;;;;;;;11.16;93.00;99100.52;3975778;88;21044;-82
2022/09/20 16:28:05;;;;;;;11.40;4.67;;;;;;;11.01;93.79;99105.05;3968607;88;21415;-82
2022/09/20 16:34:18;;;;;;;10.23;4.47;;;;;;;10.96;94.29;99114.20;3974178;88;21996;-82
2022/09/20 16:40:21;;;;;;;9.75;4.62;;;;;;;10.91;94.44;99124.12;3972867;87;21459;-82
2022/09/20 16:46:26;;;;;;;7.47;4.60;;;;;;;10.82;94.96;99135.95;3980840;88;21555;-82
2022/09/20 16:52:27;;;;;;;7.95;4.62;;;;;;;10.74;95.34;99139.75;3986787;88;21073;-82
2022/09/20 16:58:29;;;;;;;11.38;5.75;;;;;;;10.74;96.05;99148.73;4003933;86;21123;-82
2022/09/20 17:04:31;;;;;;;10.85;5.75;;;;;;;10.61;95.94;99152.09;4005828;87;21072;-82
2022/09/20 17:10:32;;;;;;;10.72;6.53;;;;;;;10.64;97.05;99168.57;4002225;88;21507;-82
2022/09/20 17:16:37;;;;;;;10.45;6.35;;;;;;;10.66;97.10;99173.67;4000999;88;21112;-82
2022/09/20 17:22:38;;;;;;;11.28;6.53;;;;;;;10.62;97.74;99176.92;4005361;88;20988;-82
2022/09/20 17:28:43;;;;;;;11.10;6.45;;;;;;;10.70;98.27;99193.66;4006412;88;21047;-81
2022/09/20 17:34:45;;;;;;;17.15;8.18;;;;;;;10.71;98.16;99198.77;3998664;86;21035;-82
2022/09/20 17:40:46;;;;;;;17.17;10.38;;;;;;;10.63;98.52;99212.14;4000628;86;21028;-82
2022/09/20 17:46:49;;;;;;;22.95;10.45;;;;;;;10.63;98.83;99214.11;3999393;88;21045;-83
2022/09/20 17:52:50;;;;;;;16.32;10.72;;;;;;;10.68;99.43;99220.64;4005984;86;21407;-82
2022/09/20 17:58:52;;;;;;;16.87;10.45;;;;;;;10.69;99.40;99218.11;4002212;88;20993;-81
2022/09/20 18:04:53;;;;;;;22.35;12.53;;;;;;;10.64;99.33;99212.38;3991964;88;21023;-82
2022/09/20 18:10:57;;;;;;;28.02;14.28;;;;;;;10.65;99.42;99215.87;4000882;87;21075;-82
2022/09/20 18:17:02;;;;;;;21.02;13.70;;;;;;;10.59;99.24;99222.84;4001779;86;21026;-81
2022/09/20 18:23:04;;;;;;;22.30;13.93;;;;;;;10.51;99.80;99232.09;4002683;86;21085;-82
2022/09/20 18:29:11;;;;;;;22.73;12.73;;;;;;;10.47;100.00;99231.27;3995744;88;22021;-82
2022/09/20 18:35:12;;;;;;;26.20;13.62;;;;;;;10.47;100.00;99244.95;3996452;88;21060;-82
2022/09/20 18:41:13;;;;;;;20.48;12.50;;;;;;;10.44;100.00;99247.06;4000914;86;21004;-82
2022/09/20 18:47:15;;;;;;;25.23;13.18;;;;;;;10.43;100.00;99258.58;4005741;88;21043;-81
2022/09/20 18:53:16;;;;;;;20.40;12.03;;;;;;;10.45;100.00;99260.38;4002284;88;22057;-82
2022/09/20 18:59:21;;;;;;;16.85;10.98;;;;;;;10.45;100.00;99265.05;3999000;88;21040;-83
2022/09/20 19:05:39;;;;;;;19.02;11.90;;;;;;;10.44;100.00;99272.49;4000380;88;21405;-82
2022/09/20 19:11:45;;;;;;;16.12;11.75;;;;;;;10.41;100.00;99275.96;3998028;88;22124;-82
2022/09/20 19:18:30;;;;;;;21.03;12.50;;;;;;;10.42;100.00;99284.37;3994782;88;21521;-82
2022/09/20 19:24:58;;;;;;;19.07;11.45;;;;;;;10.43;100.00;99294.16;3914134;86;21028;-82
2022/09/20 19:31:00;;;;;;;19.12;11.75;;;;;;;10.43;100.00;99293.39;4000342;88;21064;-82
2022/09/20 19:37:22;;;;;;;21.20;13.08;;;;;;;10.42;100.00;99290.41;4003239;87;21010;-82
2022/09/20 19:44:03;;;;;;;17.80;12.18;;;;;;;10.40;100.00;99298.20;4008571;86;21017;-82
2022/09/20 19:50:36;;;;;;;18.15;12.85;;;;;;;10.37;100.00;99294.82;4006676;88;21052;-82
2022/09/20 19:56:56;;;;;;;18.70;12.28;;;;;;;10.34;100.00;99299.09;4000104;86;21083;-83
2022/09/20 20:02:58;;;;;;;25.02;14.38;;;;;;;10.32;100.00;99307.47;4002998;88;21288;-82
2022/09/20 20:09:25;;;;;;;25.90;15.25;;;;;;;10.29;100.00;99306.83;3993961;88;21163;-82
2022/09/20 20:15:50;;;;;;;25.97;15.55;;;;;;;10.27;100.00;99311.88;3987136;87;21155;-85
2022/09/20 20:22:12;;;;;;;29.70;16.95;;;;;;;10.25;100.00;99308.13;3978894;87;21561;-81
2022/09/20 20:28:13;;;;;;;27.40;16.57;;;;;;;10.07;100.00;99317.16;3983171;87;21104;-82
2022/09/20 20:34:16;;;;;;;27.07;16.65;;;;;;;9.98;100.00;99322.05;3973666;87;21079;-82
2022/09/20 20:40:18;;;;;;;26.97;18.60;;;;;;;9.85;100.00;99319.28;3984421;88;21072;-82
2022/09/20 20:46:19;;;;;;;30.57;19.23;;;;;;;9.78;100.00;99316.39;3978823;87;21063;-82
2022/09/20 20:52:20;;;;;;;28.15;17.92;;;;;;;9.72;100.00;99326.84;3973323;88;21044;-83
2022/09/20 20:58:22;;;;;;;30.37;16.45;;;;;;;9.64;100.00;99321.59;3976765;88;21150;-83
2022/09/20 21:04:24;;;;;;;25.10;15.05;;;;;;;9.43;100.00;99324.67;3975945;88;21083;-84
2022/09/20 21:10:25;;;;;;;26.27;16.00;;;;;;;9.41;100.00;99322.30;3993583;87;21032;-82
2022/09/20 21:16:33;;;;;;;30.10;16.52;;;;;;;9.35;100.00;99322.37;4004807;87;21587;-82
2022/09/20 21:22:35;;;;;;;23.00;16.00;;;;;;;9.31;100.00;99320.16;4005500;86;21390;-82
2022/09/20 21:28:40;;;;;;;23.98;15.18;;;;;;;9.33;100.00;99317.06;4003778;87;21537;-82
2022/09/20 21:34:41;;;;;;;21.70;14.13;;;;;;;9.38;100.00;99320.30;4000115;86;21027;-83
2022/09/20 21:40:42;;;;;;;25.77;14.65;;;;;;;9.39;100.00;99326.56;4007409;88;21048;-82
2022/09/20 21:46:44;;;;;;;22.30;14.78;;;;;;;9.38;100.00;99335.32;3998066;88;21137;-80
2022/09/20 21:52:47;;;;;;;23.80;15.50;;;;;;;9.42;100.00;99334.04;3993418;88;21047;-82
2022/09/20 21:58:48;;;;;;;26.40;16.55;;;;;;;9.45;100.00;99335.48;3995343;87;21630;-84
2022/09/20 22:04:49;;;;;;;25.88;17.02;;;;;;;9.52;100.00;99343.05;3997961;88;21027;-83
2022/09/20 22:10:56;;;;;;;27.25;18.10;;;;;;;9.55;100.00;99339.59;3997212;88;21051;-82
2022/09/20 22:16:59;;;;;;;31.55;18.70;;;;;;;9.58;100.00;99339.43;3997811;88;21754;-82
2022/09/20 22:23:00;;;;;;;27.25;18.95;;;;;;;9.61;100.00;99349.08;4002462;88;21084;-82
2022/09/20 22:29:02;;;;;;;29.10;18.32;;;;;;;9.60;100.00;99342.01;4006617;88;21603;-83
2022/09/20 22:35:05;;;;;;;30.92;19.45;;;;;;;9.59;100.00;99347.27;4000740;86;21091;-82
2022/09/20 22:41:06;;;;;;;33.45;18.75;;;;;;;9.58;100.00;99340.23;3939885;86;27959;-82
2022/09/20 22:47:08;;;;;;;28.25;18.65;;;;;;;9.60;100.00;99342.01;3864152;90;21032;-82
2022/09/20 22:53:09;;;;;;;31.02;17.90;;;;;;;9.60;100.00;99347.47;3863921;90;21571;-82
2022/09/20 22:59:13;;;;;;;28.60;17.87;;;;;;;9.63;100.00;99348.16;3860218;90;21071;-82
2022/09/20 23:05:16;;;;;;;24.85;18.05;;;;;;;9.63;100.00;99344.62;3867950;90;21107;-82
2022/09/20 23:11:18;;;;;;;28.70;16.87;;;;;;;9.64;100.00;99340.72;3892715;89;21479;-82
2022/09/20 23:17:19;;;;;;;28.40;17.05;;;;;;;9.63;100.00;99344.62;3909255;89;21135;-82
2022/09/20 23:23:22;;;;;;;29.05;16.10;;;;;;;9.58;100.00;99347.84;3915331;88;21059;-82
2022/09/20 23:29:24;;;;;;;27.40;16.15;;;;;;;9.50;100.00;99350.23;4009935;87;22220;-82
2022/09/20 23:35:25;;;;;;;23.83;15.60;;;;;;;9.48;100.00;99348.99;4014659;86;21044;-83
2022/09/20 23:41:27;;;;;;;25.65;15.58;;;;;;;9.45;100.00;99356.55;4009646;86;21092;-82
2022/09/20 23:47:28;;;;;;;23.15;13.98;;;;;;;9.45;100.00;99352.45;4011747;87;21654;-82
2022/09/20 23:53:31;;;;;;;20.80;13.43;;;;;;;9.45;100.00;99351.88;4011704;87;21694;-83
2022/09/20 23:59:32;;;;;;;21.80;13.98;;;;;;;9.44;100.00;99364.53;4009936;87;21064;-82
